createdAt,value
2017-05-20T00:01:54.484Z,43.60
2017-05-20T00:04:23.196Z,43.90
2017-05-20T00:06:51.511Z,43.70
2017-05-20T00:09:19.829Z,44.00
2017-05-20T00:11:48.163Z,43.80
2017-05-20T00:14:16.476Z,43.50
2017-05-20T00:16:44.805Z,43.50
2017-05-20T00:19:13.133Z,43.00
2017-05-20T00:21:41.453Z,42.30
2017-05-20T00:24:09.768Z,41.60
2017-05-20T00:26:38.087Z,41.70
2017-05-20T00:29:06.462Z,41.70
2017-05-20T00:31:34.774Z,43.20
2017-05-20T00:34:03.116Z,42.60
2017-05-20T00:36:31.431Z,42.50
2017-05-20T00:38:59.787Z,41.50
2017-05-20T00:41:28.119Z,41.30
2017-05-20T00:43:56.436Z,41.40
2017-05-20T00:46:24.748Z,41.30
2017-05-20T00:48:53.073Z,41.60
2017-05-20T00:51:21.392Z,42.00
2017-05-20T00:53:49.709Z,41.80
2017-05-20T00:56:18.028Z,41.60
2017-05-20T00:58:46.343Z,41.30
2017-05-20T01:01:14.665Z,41.70
2017-05-20T01:03:43.243Z,42.10
2017-05-20T01:06:11.559Z,41.40
2017-05-20T01:08:39.892Z,41.70
2017-05-20T01:11:08.223Z,41.80
2017-05-20T01:13:36.552Z,41.60
2017-05-20T01:16:04.872Z,41.50
2017-05-20T01:18:33.199Z,41.40
2017-05-20T01:21:01.516Z,41.80
2017-05-20T01:23:29.832Z,41.80
2017-05-20T01:25:58.156Z,42.00
2017-05-20T01:28:26.473Z,42.30
2017-05-20T01:30:54.796Z,43.10
2017-05-20T01:33:23.264Z,43.40
2017-05-20T01:35:51.579Z,43.70
2017-05-20T01:38:19.891Z,43.50
2017-05-20T01:40:48.220Z,44.70
2017-05-20T01:43:16.527Z,43.80
2017-05-20T01:45:44.836Z,45.10
2017-05-20T01:48:13.167Z,45.80
2017-05-20T01:50:41.480Z,46.20
2017-05-20T01:53:09.791Z,46.50
2017-05-20T01:55:38.107Z,47.30
2017-05-20T01:58:06.424Z,49.40
2017-05-20T02:00:34.740Z,49.90
2017-05-20T02:03:03.068Z,50.00
2017-05-20T02:05:31.376Z,50.30
2017-05-20T02:07:59.690Z,50.20
2017-05-20T02:10:28.015Z,50.60
2017-05-20T02:12:56.324Z,51.10
2017-05-20T02:15:24.644Z,51.60
2017-05-20T02:17:52.972Z,52.40
2017-05-20T02:20:21.300Z,52.80
2017-05-20T02:22:49.613Z,53.40
2017-05-20T02:25:17.936Z,54.70
2017-05-20T02:27:46.255Z,55.80
2017-05-20T02:30:14.572Z,57.00
2017-05-20T02:32:42.891Z,58.40
2017-05-20T02:35:11.203Z,57.50
2017-05-20T02:37:39.517Z,58.10
2017-05-20T02:40:07.861Z,58.90
2017-05-20T02:42:36.176Z,58.70
2017-05-20T02:45:04.536Z,59.40
2017-05-20T02:47:32.854Z,59.30
2017-05-20T02:50:01.159Z,59.70
2017-05-20T02:52:29.471Z,59.00
2017-05-20T02:54:57.792Z,58.90
2017-05-20T02:57:26.115Z,58.70
2017-05-20T02:59:54.429Z,59.60
2017-05-20T03:02:22.759Z,59.50
2017-05-20T03:04:51.076Z,59.80
2017-05-20T03:07:19.393Z,60.60
2017-05-20T03:09:47.886Z,61.40
2017-05-20T03:12:16.214Z,61.20
2017-05-20T03:14:44.523Z,61.10
2017-05-20T03:17:12.843Z,62.00
2017-05-20T03:19:41.159Z,62.50
2017-05-20T03:22:09.481Z,62.60
2017-05-20T03:24:37.803Z,62.40
2017-05-20T03:27:06.120Z,63.50
2017-05-20T03:29:34.438Z,62.30
2017-05-20T03:32:02.768Z,61.60
2017-05-20T03:34:31.084Z,61.30
2017-05-20T03:36:59.400Z,61.00
2017-05-20T03:39:27.732Z,60.10
2017-05-20T03:41:56.060Z,59.70
2017-05-20T03:44:24.384Z,60.30
2017-05-20T03:46:52.708Z,61.60
2017-05-20T03:49:21.028Z,61.00
2017-05-20T03:51:49.341Z,61.20
2017-05-20T03:54:17.672Z,61.30
2017-05-20T03:56:45.996Z,61.90
2017-05-20T03:59:14.405Z,60.20
2017-05-20T04:01:42.750Z,60.80
2017-05-20T04:04:11.069Z,61.40
2017-05-20T04:06:39.380Z,60.90
2017-05-20T04:09:07.705Z,61.20
2017-05-20T04:11:36.033Z,60.90
2017-05-20T04:14:04.344Z,60.80
2017-05-20T04:16:32.671Z,60.00
2017-05-20T04:19:00.987Z,59.50
2017-05-20T04:21:29.399Z,59.00
2017-05-20T04:23:57.722Z,58.60
2017-05-20T04:26:26.028Z,58.60
2017-05-20T04:28:54.332Z,58.40
2017-05-20T04:31:22.645Z,58.90
2017-05-20T04:33:50.952Z,58.40
2017-05-20T04:36:19.263Z,58.60
2017-05-20T04:38:47.579Z,58.10
2017-05-20T04:41:15.892Z,58.00
2017-05-20T04:43:44.202Z,57.50
2017-05-20T04:46:12.519Z,56.30
2017-05-20T04:48:40.836Z,56.30
2017-05-20T04:51:09.140Z,56.30
2017-05-20T04:53:37.457Z,56.80
2017-05-20T04:56:05.759Z,57.50
2017-05-20T04:58:34.139Z,57.40
2017-05-20T05:01:02.455Z,57.40
2017-05-20T05:03:30.769Z,57.40
2017-05-20T05:05:59.071Z,56.60
2017-05-20T05:08:27.392Z,55.50
2017-05-20T05:10:55.703Z,56.10
2017-05-20T05:13:24.016Z,56.10
2017-05-20T05:15:52.336Z,56.10
2017-05-20T05:18:20.643Z,55.40
2017-05-20T05:20:48.952Z,55.40
2017-05-20T05:23:17.276Z,55.10
2017-05-20T05:25:45.583Z,55.20
2017-05-20T05:28:13.893Z,55.50
2017-05-20T05:30:42.210Z,54.60
2017-05-20T05:33:10.512Z,54.30
2017-05-20T05:35:38.827Z,55.30
2017-05-20T05:38:07.146Z,55.30
2017-05-20T05:40:35.448Z,54.50
2017-05-20T05:43:03.764Z,53.70
2017-05-20T05:45:32.092Z,53.20
2017-05-20T05:48:00.407Z,53.60
2017-05-20T05:50:28.723Z,53.80
2017-05-20T05:52:57.042Z,53.60
2017-05-20T05:55:25.348Z,52.70
2017-05-20T05:57:53.655Z,53.60
2017-05-20T06:00:21.987Z,54.40
2017-05-20T06:02:50.328Z,54.20
2017-05-20T06:07:56.116Z,54.00
2017-05-20T06:10:24.432Z,53.70
2017-05-20T06:12:52.740Z,53.70
2017-05-20T06:15:21.068Z,53.30
2017-05-20T06:17:49.382Z,54.10
2017-05-20T06:20:17.697Z,55.10
2017-05-20T06:22:46.017Z,55.10
2017-05-20T06:25:14.329Z,54.20
2017-05-20T06:27:42.643Z,54.40
2017-05-20T06:30:10.985Z,54.30
2017-05-20T06:32:39.301Z,53.40
2017-05-20T06:35:07.610Z,53.30
2017-05-20T06:37:35.923Z,53.10
2017-05-20T06:40:04.233Z,53.20
2017-05-20T06:42:32.547Z,53.70
2017-05-20T06:45:00.860Z,53.90
2017-05-20T06:47:29.165Z,54.20
2017-05-20T06:49:57.476Z,53.70
2017-05-20T06:52:25.884Z,53.30
2017-05-20T06:54:54.193Z,53.10
2017-05-20T06:57:22.507Z,52.80
2017-05-20T06:59:50.839Z,53.00
2017-05-20T07:02:19.159Z,53.70
2017-05-20T07:04:47.464Z,53.00
2017-05-20T07:07:15.788Z,53.50
2017-05-20T07:09:44.093Z,53.50
2017-05-20T07:12:12.395Z,52.80
2017-05-20T07:14:40.712Z,53.70
2017-05-20T07:17:09.024Z,53.80
2017-05-20T07:19:37.332Z,54.00
2017-05-20T07:22:05.661Z,53.60
2017-05-20T07:24:33.978Z,53.50
2017-05-20T07:27:02.284Z,52.90
2017-05-20T07:29:30.607Z,52.70
2017-05-20T07:31:58.936Z,53.50
2017-05-20T07:34:27.244Z,53.10
2017-05-20T07:36:55.560Z,53.40
2017-05-20T07:39:23.875Z,53.30
2017-05-20T07:41:52.187Z,53.20
2017-05-20T07:44:20.499Z,52.80
2017-05-20T07:46:48.811Z,52.70
2017-05-20T07:49:17.128Z,52.70
2017-05-20T07:51:45.447Z,52.70
2017-05-20T07:54:13.764Z,51.90
2017-05-20T07:56:42.077Z,52.40
2017-05-20T07:59:10.546Z,52.30
2017-05-20T08:01:38.856Z,52.10
2017-05-20T08:04:07.264Z,52.10
2017-05-20T08:06:35.576Z,52.20
2017-05-20T08:09:03.893Z,52.20
2017-05-20T08:11:32.746Z,52.40
2017-05-20T08:14:01.095Z,52.40
2017-05-20T08:16:29.404Z,52.10
2017-05-20T08:18:57.725Z,52.00
2017-05-20T08:21:26.044Z,51.50
2017-05-20T08:23:54.354Z,51.80
2017-05-20T08:26:22.655Z,52.60
2017-05-20T08:28:50.965Z,52.30
2017-05-20T08:31:19.272Z,53.30
2017-05-20T08:33:47.577Z,52.80
2017-05-20T08:36:15.910Z,52.90
2017-05-20T08:38:44.225Z,52.60
2017-05-20T08:41:12.552Z,52.50
2017-05-20T08:43:40.985Z,51.90
2017-05-20T08:46:09.313Z,51.60
2017-05-20T08:48:37.628Z,51.30
2017-05-20T08:51:05.946Z,50.90
2017-05-20T08:53:34.254Z,51.20
2017-05-20T08:56:02.563Z,51.70
2017-05-20T08:58:30.889Z,51.50
2017-05-20T09:00:59.205Z,51.40
2017-05-20T09:03:27.511Z,51.80
2017-05-20T09:05:55.841Z,51.70
2017-05-20T09:08:24.153Z,51.50
2017-05-20T09:10:52.471Z,51.60
2017-05-20T09:13:20.789Z,51.60
2017-05-20T09:15:49.095Z,51.60
2017-05-20T09:18:17.519Z,51.40
2017-05-20T09:20:46.039Z,50.90
2017-05-20T09:23:14.360Z,50.80
2017-05-20T09:25:42.668Z,50.80
2017-05-20T09:28:10.989Z,51.20
2017-05-20T09:30:39.294Z,51.60
2017-05-20T09:33:07.599Z,51.30
2017-05-20T09:35:35.927Z,50.60
2017-05-20T09:38:04.232Z,50.30
2017-05-20T09:40:32.539Z,50.30
2017-05-20T09:43:00.855Z,50.60
2017-05-20T09:45:29.155Z,50.10
2017-05-20T09:47:57.458Z,49.70
2017-05-20T09:50:25.771Z,49.90
2017-05-20T09:52:54.081Z,50.10
2017-05-20T09:55:22.386Z,50.30
2017-05-20T09:57:50.708Z,50.90
2017-05-20T10:00:19.007Z,51.30
2017-05-20T10:02:47.311Z,51.50
2017-05-20T10:05:15.628Z,51.30
2017-05-20T10:07:43.933Z,51.20
2017-05-20T10:10:12.261Z,51.00
2017-05-20T10:12:40.582Z,51.50
2017-05-20T10:15:08.888Z,51.20
2017-05-20T10:17:37.192Z,51.40
2017-05-20T10:20:05.513Z,52.10
2017-05-20T10:22:33.828Z,51.60
2017-05-20T10:25:02.138Z,52.10
2017-05-20T10:27:30.454Z,51.80
2017-05-20T10:29:58.772Z,51.60
2017-05-20T10:32:27.092Z,51.70
2017-05-20T10:34:55.402Z,51.40
2017-05-20T10:37:23.713Z,51.00
2017-05-20T10:39:52.021Z,51.10
2017-05-20T10:42:20.339Z,51.10
2017-05-20T10:44:48.647Z,51.10
2017-05-20T10:47:16.957Z,51.40
2017-05-20T10:49:45.292Z,51.50
2017-05-20T10:52:13.608Z,51.80
2017-05-20T10:54:41.945Z,51.70
2017-05-20T10:57:10.286Z,51.80
2017-05-20T10:59:38.744Z,51.70
2017-05-20T11:02:07.051Z,51.20
2017-05-20T11:04:35.403Z,51.50
2017-05-20T11:07:03.721Z,51.80
2017-05-20T11:09:32.072Z,51.50
2017-05-20T11:12:00.388Z,51.00
2017-05-20T11:14:28.700Z,50.70
2017-05-20T11:16:57.008Z,51.10
2017-05-20T11:19:25.328Z,51.40
2017-05-20T11:21:53.636Z,51.30
2017-05-20T11:24:21.940Z,51.00
2017-05-20T11:26:50.253Z,51.60
2017-05-20T11:29:18.564Z,52.10
2017-05-20T11:31:46.871Z,51.60
2017-05-20T11:34:15.180Z,51.80
2017-05-20T11:36:43.494Z,52.00
2017-05-20T11:39:11.811Z,51.70
2017-05-20T11:41:40.124Z,51.50
2017-05-20T11:44:08.424Z,51.70
2017-05-20T11:46:36.727Z,51.10
2017-05-20T11:49:05.041Z,50.90
2017-05-20T11:51:33.352Z,51.00
2017-05-20T11:54:01.668Z,51.90
2017-05-20T11:56:29.983Z,51.20
2017-05-20T11:58:58.298Z,50.90
2017-05-20T12:01:26.607Z,50.80
2017-05-20T12:03:54.935Z,51.10
2017-05-20T12:06:23.294Z,51.20
2017-05-20T12:08:51.596Z,51.10
2017-05-20T12:11:19.924Z,50.30
2017-05-20T12:13:48.265Z,51.10
2017-05-20T12:16:16.584Z,51.30
2017-05-20T12:18:44.900Z,51.50
2017-05-20T12:21:13.212Z,52.00
2017-05-20T12:23:41.650Z,51.90
2017-05-20T12:26:10.052Z,51.60
2017-05-20T12:28:38.364Z,51.50
2017-05-20T12:31:06.682Z,51.70
2017-05-20T12:33:35.180Z,51.70
2017-05-20T12:36:03.488Z,51.30
2017-05-20T12:38:31.795Z,51.20
2017-05-20T12:41:00.115Z,51.30
2017-05-20T12:43:28.496Z,51.20
2017-05-20T12:45:56.819Z,51.20
2017-05-20T12:48:25.136Z,51.40
2017-05-20T12:50:53.461Z,51.80
2017-05-20T12:53:21.767Z,51.80
2017-05-20T12:55:50.081Z,51.40
2017-05-20T12:58:18.392Z,51.40
2017-05-20T13:00:46.757Z,51.60
2017-05-20T13:03:15.108Z,51.50
2017-05-20T13:05:43.421Z,51.70
2017-05-20T13:08:11.743Z,51.20
2017-05-20T13:10:40.065Z,51.20
2017-05-20T13:13:08.380Z,50.90
2017-05-20T13:15:36.691Z,50.80
2017-05-20T13:18:05.011Z,51.00
2017-05-20T13:20:33.320Z,51.40
2017-05-20T13:23:01.671Z,51.50
2017-05-20T13:25:29.992Z,51.90
2017-05-20T13:27:58.296Z,51.80
2017-05-20T13:30:26.603Z,51.80
2017-05-20T13:32:54.922Z,51.50
2017-05-20T13:35:23.235Z,51.40
2017-05-20T13:37:51.539Z,51.60
2017-05-20T13:40:19.863Z,51.90
2017-05-20T13:42:48.188Z,51.90
2017-05-20T13:45:16.512Z,51.50
2017-05-20T13:47:44.846Z,51.30
2017-05-20T13:50:13.163Z,51.60
2017-05-20T13:52:41.484Z,51.40
2017-05-20T13:55:09.800Z,51.40
2017-05-20T13:57:38.112Z,51.30
2017-05-20T14:00:06.428Z,51.20
2017-05-20T14:02:34.847Z,51.30
2017-05-20T14:05:03.203Z,51.10
2017-05-20T14:07:31.572Z,51.60
2017-05-20T14:09:59.884Z,51.40
2017-05-20T14:12:28.200Z,51.20
2017-05-20T14:14:56.507Z,51.40
2017-05-20T14:17:24.824Z,51.20
2017-05-20T14:19:53.132Z,51.30
2017-05-20T14:22:21.435Z,51.20
2017-05-20T14:24:49.755Z,51.50
2017-05-20T14:27:18.060Z,51.70
2017-05-20T14:29:46.374Z,52.40
2017-05-20T14:32:14.687Z,52.30
2017-05-20T14:34:43.054Z,51.90
2017-05-20T14:37:11.367Z,52.30
2017-05-20T14:39:39.692Z,51.90
2017-05-20T14:42:07.995Z,51.60
2017-05-20T14:44:36.303Z,51.90
2017-05-20T14:47:04.621Z,52.20
2017-05-20T14:49:32.929Z,52.00
2017-05-20T14:52:01.236Z,52.20
2017-05-20T14:54:29.561Z,51.70
2017-05-20T14:56:57.875Z,51.80
2017-05-20T14:59:26.186Z,52.00
2017-05-20T15:01:54.500Z,52.00
2017-05-20T15:04:22.803Z,51.80
2017-05-20T15:06:51.215Z,51.70
2017-05-20T15:09:19.537Z,51.40
2017-05-20T15:11:47.847Z,51.50
2017-05-20T15:14:16.158Z,51.80
2017-05-20T15:16:44.471Z,52.20
2017-05-20T15:19:12.780Z,52.10
2017-05-20T15:21:41.091Z,52.20
2017-05-20T15:24:09.404Z,52.10
2017-05-20T15:26:38.096Z,51.70
2017-05-20T15:29:06.406Z,51.90
2017-05-20T15:31:34.824Z,51.40
2017-05-20T15:34:03.152Z,51.70
2017-05-20T15:36:31.471Z,51.20
2017-05-20T15:38:59.791Z,51.80
2017-05-20T15:41:28.108Z,52.50
2017-05-20T15:43:56.468Z,53.10
2017-05-20T15:46:24.959Z,53.40
2017-05-20T15:48:53.278Z,52.70
2017-05-20T15:51:21.617Z,53.00
2017-05-20T15:53:49.951Z,52.50
2017-05-20T15:56:18.286Z,52.10
2017-05-20T15:58:46.611Z,51.70
2017-05-20T16:01:14.932Z,51.40
2017-05-20T16:03:43.243Z,51.50
2017-05-20T16:06:11.608Z,51.80
2017-05-20T16:08:39.924Z,51.10
2017-05-20T16:11:08.232Z,51.20
2017-05-20T16:13:36.560Z,51.20
2017-05-20T16:16:14.821Z,51.20
2017-05-20T16:18:48.318Z,50.90
2017-05-20T16:21:16.825Z,51.00
2017-05-20T16:23:45.141Z,50.30
2017-05-20T16:26:14.647Z,50.60
2017-05-20T16:28:42.960Z,50.50
2017-05-20T16:31:11.365Z,50.70
2017-05-20T16:33:41.781Z,50.30
2017-05-20T16:36:10.219Z,50.40
2017-05-20T16:38:38.528Z,50.60
2017-05-20T16:41:06.843Z,50.20
2017-05-20T16:43:35.161Z,50.60
2017-05-20T16:46:03.541Z,50.30
2017-05-20T16:48:31.851Z,50.20
2017-05-20T16:51:00.176Z,49.80
2017-05-20T16:53:28.498Z,49.90
2017-05-20T16:55:56.811Z,49.70
2017-05-20T16:58:25.134Z,50.30
2017-05-20T17:00:53.435Z,50.10
2017-05-20T17:03:21.756Z,50.30
2017-05-20T17:05:50.286Z,50.20
2017-05-20T17:08:18.611Z,49.90
2017-05-20T17:10:46.921Z,49.60
2017-05-20T17:13:15.244Z,49.90
2017-05-20T17:15:43.551Z,50.10
2017-05-20T17:18:11.863Z,50.00
2017-05-20T17:20:41.178Z,50.00
2017-05-20T17:23:10.216Z,50.00
2017-05-20T17:25:38.548Z,49.90
2017-05-20T17:28:06.860Z,49.90
2017-05-20T17:30:35.252Z,49.30
2017-05-20T17:33:03.571Z,49.10
2017-05-20T17:35:31.889Z,49.00
2017-05-20T17:38:00.198Z,49.80
2017-05-20T17:40:28.519Z,49.20
2017-05-20T17:42:56.826Z,49.20
2017-05-20T17:45:25.141Z,48.90
2017-05-20T17:47:53.452Z,48.60
2017-05-20T17:50:21.764Z,48.90
2017-05-20T17:52:50.071Z,49.30
2017-05-20T17:55:18.402Z,49.00
2017-05-20T17:57:46.713Z,49.70
2017-05-20T18:00:15.041Z,49.70
2017-05-20T18:02:43.386Z,49.60
2017-05-20T18:05:13.020Z,49.60
2017-05-20T18:07:41.331Z,49.50
2017-05-20T18:10:09.646Z,49.40
2017-05-20T18:12:37.966Z,49.30
2017-05-20T18:15:06.276Z,49.50
2017-05-20T18:17:34.603Z,49.60
2017-05-20T18:20:02.916Z,49.60
2017-05-20T18:22:31.221Z,49.50
2017-05-20T18:24:59.599Z,49.80
2017-05-20T18:27:27.910Z,50.00
2017-05-20T18:29:56.225Z,49.90
2017-05-20T18:32:24.564Z,49.80
2017-05-20T18:34:52.895Z,49.90
2017-05-20T18:37:21.221Z,49.80
2017-05-20T18:39:49.544Z,50.00
2017-05-20T18:42:17.861Z,50.00
2017-05-20T18:44:46.183Z,50.10
2017-05-20T18:47:14.900Z,50.20
2017-05-20T18:49:43.244Z,50.30
2017-05-20T18:52:11.559Z,50.30
2017-05-20T18:54:40.684Z,50.40
2017-05-20T18:57:09.041Z,50.30
2017-05-20T18:59:37.363Z,50.00
2017-05-20T19:02:05.680Z,50.10
2017-05-20T19:04:33.985Z,50.00
2017-05-20T19:07:02.304Z,50.00
2017-05-20T19:09:30.712Z,50.40
2017-05-20T19:11:59.091Z,50.20
2017-05-20T19:14:27.409Z,50.40
2017-05-20T19:16:55.728Z,50.60
2017-05-20T19:19:24.036Z,50.70
2017-05-20T19:21:52.351Z,50.70
2017-05-20T19:24:20.669Z,50.90
2017-05-20T19:26:48.995Z,51.00
2017-05-20T19:29:17.324Z,51.00
2017-05-20T19:31:45.653Z,50.90
2017-05-20T19:34:13.958Z,50.90
2017-05-20T19:36:42.272Z,51.10
2017-05-20T19:39:10.587Z,50.90
2017-05-20T19:41:38.895Z,50.80
2017-05-20T19:44:07.288Z,51.00
2017-05-20T19:46:35.604Z,51.00
2017-05-20T19:49:03.917Z,51.40
2017-05-20T19:51:32.224Z,51.50
2017-05-20T19:54:00.929Z,51.80
2017-05-20T19:56:29.238Z,51.80
2017-05-20T19:58:57.556Z,51.60
2017-05-20T20:01:25.871Z,51.70
2017-05-20T20:03:54.230Z,51.60
2017-05-20T20:06:22.542Z,51.80
2017-05-20T20:08:50.863Z,51.90
2017-05-20T20:11:19.170Z,51.80
2017-05-20T20:13:47.486Z,51.50
2017-05-20T20:16:15.821Z,51.50
2017-05-20T20:18:44.132Z,51.40
2017-05-20T20:21:12.468Z,51.30
2017-05-20T20:23:40.790Z,51.50
2017-05-20T20:26:09.111Z,51.60
2017-05-20T20:28:37.436Z,51.80
2017-05-20T20:31:05.760Z,52.20
2017-05-20T20:33:34.065Z,52.40
2017-05-20T20:36:02.372Z,52.40
2017-05-20T20:38:30.701Z,52.50
2017-05-20T20:40:59.015Z,52.50
2017-05-20T20:43:27.320Z,52.80
2017-05-20T20:45:55.637Z,52.80
2017-05-20T20:48:23.955Z,52.70
2017-05-20T20:50:52.263Z,53.20
2017-05-20T20:53:20.572Z,52.60
2017-05-20T20:55:48.888Z,52.00
2017-05-20T20:58:17.205Z,52.20
2017-05-20T21:00:45.524Z,52.30
2017-05-20T21:03:13.838Z,52.30
2017-05-20T21:05:42.147Z,52.10
2017-05-20T21:08:10.727Z,51.80
2017-05-20T21:10:39.103Z,51.50
2017-05-20T21:13:07.416Z,51.80
2017-05-20T21:15:35.739Z,52.40
2017-05-20T21:18:04.056Z,51.90
2017-05-20T21:20:32.367Z,51.80
2017-05-20T21:23:00.683Z,52.20
2017-05-20T21:25:28.989Z,52.10
2017-05-20T21:27:57.308Z,52.10
2017-05-20T21:30:25.624Z,52.30
2017-05-20T21:32:53.936Z,52.30
2017-05-20T21:35:22.251Z,52.10
2017-05-20T21:37:50.564Z,52.00
2017-05-20T21:40:18.863Z,52.10
2017-05-20T21:42:47.168Z,52.20
2017-05-20T21:45:15.489Z,52.10
2017-05-20T21:47:43.821Z,52.20
2017-05-20T21:50:12.128Z,52.10
2017-05-20T21:52:40.455Z,51.90
2017-05-20T21:55:08.764Z,52.20
2017-05-20T21:57:37.076Z,52.10
2017-05-20T22:00:05.451Z,51.70
2017-05-20T22:02:33.756Z,51.80
2017-05-20T22:05:02.076Z,51.80
2017-05-20T22:07:30.396Z,51.60
2017-05-20T22:09:58.700Z,51.50
2017-05-20T22:12:27.008Z,51.90
2017-05-20T22:14:55.324Z,52.10
2017-05-20T22:17:23.649Z,52.10
2017-05-20T22:19:51.960Z,52.00
2017-05-20T22:22:20.306Z,52.10
2017-05-20T22:24:48.612Z,52.20
2017-05-20T22:27:16.927Z,52.20
2017-05-20T22:29:45.244Z,52.40
2017-05-20T22:32:13.549Z,52.30
2017-05-20T22:34:41.889Z,52.10
2017-05-20T22:37:10.212Z,52.00
2017-05-20T22:39:38.528Z,52.10
2017-05-20T22:42:06.849Z,52.10
2017-05-20T22:44:35.163Z,51.90
2017-05-20T22:47:03.475Z,52.10
2017-05-20T22:49:31.790Z,52.20
2017-05-20T22:52:00.109Z,52.00
2017-05-20T22:54:28.419Z,51.90
2017-05-20T22:56:56.724Z,52.20
2017-05-20T22:59:25.049Z,52.10
2017-05-20T23:01:53.356Z,52.10
2017-05-20T23:04:21.676Z,52.10
2017-05-20T23:06:49.992Z,52.00
2017-05-20T23:09:18.305Z,51.80
2017-05-20T23:11:46.617Z,52.10
2017-05-20T23:14:14.936Z,52.20
2017-05-20T23:16:43.251Z,52.20
2017-05-20T23:19:11.555Z,51.70
2017-05-20T23:21:40.088Z,51.70
2017-05-20T23:24:08.387Z,51.60
2017-05-20T23:26:36.688Z,51.70
2017-05-20T23:29:05.005Z,51.60
2017-05-20T23:31:33.312Z,51.20
2017-05-20T23:34:01.620Z,51.40
2017-05-20T23:36:29.935Z,51.40
2017-05-20T23:38:58.251Z,51.40
2017-05-20T23:41:26.559Z,51.20
2017-05-20T23:43:54.868Z,51.10
2017-05-20T23:46:23.208Z,51.10
2017-05-20T23:48:51.511Z,51.00
2017-05-20T23:51:19.827Z,51.30
2017-05-20T23:53:48.133Z,51.40
2017-05-20T23:56:16.463Z,51.30
2017-05-20T23:58:44.795Z,51.30
